Time;durP1;ratioP1;P1;durP2;ratioP2;P2;SDS_P1;SDS_P2;PMS_P1;PMS_P2;Temp;Humidity;BMP_temperature;BMP_pressure;BME280_temperature;BME280_humidity;BME280_pressure;Samples;Min_cycle;Max_cycle;Signal;HPM_P1;HPM_P2
2022/11/02 00:02:19;;;;;;;96.28;31.83;;;;;;;;;;6265330;28;20048;-67
2022/11/02 00:05:23;;;;;;;93.95;31.85;;;;;;;;;;6266223;28;20522;-65
2022/11/02 00:08:24;;;;;;;103.03;32.78;;;;;;;;;;6268258;28;20088;-64
2022/11/02 00:11:24;;;;;;;92.55;32.10;;;;;;;;;;6267946;28;20416;-67
2022/11/02 00:14:25;;;;;;;91.85;31.98;;;;;;;;;;6270651;28;20057;-66
2022/11/02 00:17:26;;;;;;;93.72;32.15;;;;;;;;;;6268259;28;20503;-65
2022/11/02 00:20:29;;;;;;;92.55;32.33;;;;;;;;;;6266727;28;20744;-65
2022/11/02 00:23:31;;;;;;;97.20;31.27;;;;;;;;;;6265935;28;20064;-64
2022/11/02 00:26:33;;;;;;;89.80;30.90;;;;;;;;;;6264049;28;20064;-63
2022/11/02 00:29:34;;;;;;;91.55;31.08;;;;;;;;;;6267712;28;20131;-67
2022/11/02 00:32:34;;;;;;;91.43;30.33;;;;;;;;;;6266290;28;20078;-65
2022/11/02 00:35:36;;;;;;;96.22;30.60;;;;;;;;;;6267814;28;20452;-65
2022/11/02 00:38:37;;;;;;;87.57;30.45;;;;;;;;;;6292636;28;20067;-65
2022/11/02 00:41:37;;;;;;;84.60;28.85;;;;;;;;;;6269632;28;20407;-65
2022/11/02 00:44:38;;;;;;;100.88;29.67;;;;;;;;;;6266416;28;20051;-67
2022/11/02 00:47:38;;;;;;;93.70;31.20;;;;;;;;;;6272127;28;20045;-65
2022/11/02 00:50:40;;;;;;;90.93;28.70;;;;;;;;;;6276119;28;20488;-64
2022/11/02 00:53:40;;;;;;;89.95;29.65;;;;;;;;;;6265716;28;20127;-64
2022/11/02 00:56:41;;;;;;;91.13;31.00;;;;;;;;;;6267605;28;20045;-64
2022/11/02 00:59:42;;;;;;;92.78;29.95;;;;;;;;;;6263420;28;20139;-64
2022/11/02 01:02:43;;;;;;;89.47;28.40;;;;;;;;;;6266008;28;20462;-66
2022/11/02 01:05:44;;;;;;;83.20;27.42;;;;;;;;;;6282556;28;20346;-65
2022/11/02 01:08:44;;;;;;;88.50;29.75;;;;;;;;;;6278773;28;20045;-67
2022/11/02 01:11:45;;;;;;;90.65;28.88;;;;;;;;;;6266739;28;20064;-63
2022/11/02 01:14:46;;;;;;;87.07;29.60;;;;;;;;;;6268078;28;20399;-65
2022/11/02 01:17:47;;;;;;;90.00;30.23;;;;;;;;;;6268000;28;20154;-64
2022/11/02 01:20:54;;;;;;;89.13;30.85;;;;;;;;;;6268879;28;20052;-67
2022/11/02 01:23:55;;;;;;;88.32;30.52;;;;;;;;;;6272208;28;20048;-65
2022/11/02 01:26:55;;;;;;;97.85;32.30;;;;;;;;;;6295521;28;20055;-63
2022/11/02 01:29:56;;;;;;;94.93;32.22;;;;;;;;;;6273325;28;20076;-65
2022/11/02 01:32:56;;;;;;;95.68;30.10;;;;;;;;;;6278763;28;20052;-63
2022/11/02 01:35:57;;;;;;;94.10;30.40;;;;;;;;;;6291051;28;20049;-67
2022/11/02 01:38:57;;;;;;;97.03;30.67;;;;;;;;;;6269989;28;20048;-67
2022/11/02 01:41:58;;;;;;;97.28;30.90;;;;;;;;;;6270772;28;20068;-68
2022/11/02 01:44:58;;;;;;;92.22;30.80;;;;;;;;;;6269439;28;20060;-67
2022/11/02 01:47:59;;;;;;;95.28;30.20;;;;;;;;;;6276218;28;20194;-63
2022/11/02 01:51:04;;;;;;;91.80;31.55;;;;;;;;;;6267796;28;20063;-63
2022/11/02 01:54:22;;;;;;;93.93;31.25;;;;;;;;;;6265941;28;20045;-67
2022/11/02 01:57:24;;;;;;;91.82;31.83;;;;;;;;;;6267378;28;20052;-66
2022/11/02 02:00:25;;;;;;;97.72;31.83;;;;;;;;;;6270467;28;20206;-67
2022/11/02 02:03:28;;;;;;;94.85;30.23;;;;;;;;;;6262911;28;20049;-67
2022/11/02 02:06:29;;;;;;;92.38;31.38;;;;;;;;;;6273159;28;20065;-67
2022/11/02 02:09:29;;;;;;;95.30;29.73;;;;;;;;;;6272272;28;20171;-66
2022/11/02 02:12:31;;;;;;;86.72;28.52;;;;;;;;;;6268974;28;20131;-65
2022/11/02 02:15:59;;;;;;;95.47;30.23;;;;;;;;;;6271829;28;20048;-64
2022/11/02 02:19:07;;;;;;;94.78;31.05;;;;;;;;;;6285501;28;20059;-66
2022/11/02 02:22:29;;;;;;;99.13;31.85;;;;;;;;;;6284895;28;20041;-65
2022/11/02 02:25:47;;;;;;;;;;;;;;;;;;6270171;28;20168;-67
2022/11/02 02:28:53;;;;;;;90.15;29.08;;;;;;;;;;6278507;28;19965;-64
2022/11/02 02:32:31;;;;;;;88.47;29.65;;;;;;;;;;6271661;28;20139;-67
2022/11/02 02:35:37;;;;;;;93.45;29.40;;;;;;;;;;6177905;28;20097;-66
2022/11/02 02:38:45;;;;;;;88.13;30.35;;;;;;;;;;6264900;28;20145;-66
2022/11/02 02:41:56;;;;;;;90.55;30.40;;;;;;;;;;6264676;28;20446;-66
2022/11/02 02:45:22;;;;;;;86.72;30.23;;;;;;;;;;6266872;28;20169;-66
2022/11/02 02:48:24;;;;;;;92.03;29.60;;;;;;;;;;6282115;28;20101;-65
2022/11/02 02:51:31;;;;;;;93.93;33.08;;;;;;;;;;6286372;28;20059;-66
2022/11/02 02:54:41;;;;;;;96.88;31.08;;;;;;;;;;6268529;28;20442;-66
2022/11/02 02:57:44;;;;;;;90.68;31.73;;;;;;;;;;6260206;28;20472;-66
2022/11/02 03:00:45;;;;;;;;;;;;;;;;;;6265826;28;20095;-67
2022/11/02 03:03:46;;;;;;;97.57;31.02;;;;;;;;;;6268825;28;19968;-65
2022/11/02 03:06:57;;;;;;;109.40;35.42;;;;;;;;;;6267131;28;20049;-65
2022/11/02 03:10:09;;;;;;;101.20;34.10;;;;;;;;;;6271211;28;20222;-64
2022/11/02 03:13:28;;;;;;;97.90;33.30;;;;;;;;;;6274186;28;20036;-65
2022/11/02 03:16:45;;;;;;;94.28;31.75;;;;;;;;;;6289260;28;20602;-67
2022/11/02 03:20:03;;;;;;;101.28;34.25;;;;;;;;;;6268922;28;20041;-65
2022/11/02 03:23:11;;;;;;;100.90;32.17;;;;;;;;;;6269131;28;20045;-65
2022/11/02 03:26:21;;;;;;;95.47;31.92;;;;;;;;;;6268510;28;20068;-65
2022/11/02 03:29:37;;;;;;;96.07;31.70;;;;;;;;;;6263858;28;20037;-65
2022/11/02 03:33:05;;;;;;;97.25;33.65;;;;;;;;;;6267388;28;20051;-66
2022/11/02 03:36:18;;;;;;;94.72;30.95;;;;;;;;;;6268526;28;20041;-65
2022/11/02 03:39:26;;;;;;;96.68;31.70;;;;;;;;;;6270729;28;20045;-66
2022/11/02 03:42:31;;;;;;;96.70;30.48;;;;;;;;;;6266703;28;20109;-66
2022/11/02 03:45:38;;;;;;;100.65;31.35;;;;;;;;;;6269616;28;20049;-64
2022/11/02 03:48:45;;;;;;;93.75;31.05;;;;;;;;;;6279545;28;20889;-65
2022/11/02 03:51:46;;;;;;;96.15;31.70;;;;;;;;;;6269727;28;20064;-66
2022/11/02 03:55:08;;;;;;;94.43;29.80;;;;;;;;;;6268987;28;20048;-65
2022/11/02 03:58:10;;;;;;;100.72;30.70;;;;;;;;;;6264012;28;20083;-66
2022/11/02 04:01:11;;;;;;;102.13;32.33;;;;;;;;;;6263221;28;20403;-66
2022/11/02 04:04:12;;;;;;;92.40;30.42;;;;;;;;;;6290487;28;20060;-65
2022/11/02 04:07:15;;;;;;;94.85;31.77;;;;;;;;;;6273214;28;20083;-65
2022/11/02 04:10:16;;;;;;;95.95;32.03;;;;;;;;;;6272527;28;20079;-65
2022/11/02 04:16:35;;;;;;;101.50;33.20;;;;;;;;;;6262666;28;20047;-66
2022/11/02 04:19:36;;;;;;;97.57;31.38;;;;;;;;;;6268070;28;20499;-65
2022/11/02 04:25:55;;;;;;;99.63;30.52;;;;;;;;;;6252610;28;20124;-65
2022/11/02 04:28:56;;;;;;;99.47;32.90;;;;;;;;;;6265511;28;20059;-64
2022/11/02 04:31:57;;;;;;;101.75;31.67;;;;;;;;;;6266255;28;20087;-66
2022/11/02 04:34:57;;;;;;;103.22;29.70;;;;;;;;;;6265408;28;20717;-65
2022/11/02 04:44:49;;;;;;;101.22;31.65;;;;;;;;;;6252573;28;20131;-65
2022/11/02 04:47:50;;;;;;;104.38;30.83;;;;;;;;;;6265918;28;20094;-65
2022/11/02 04:50:50;;;;;;;101.95;31.23;;;;;;;;;;6269801;28;20141;-65
2022/11/02 04:53:52;;;;;;;102.07;30.88;;;;;;;;;;6270011;28;20045;-66
2022/11/02 04:56:53;;;;;;;100.32;30.45;;;;;;;;;;6269974;28;20064;-65
2022/11/02 04:59:53;;;;;;;96.78;29.65;;;;;;;;;;6268929;28;20044;-65
2022/11/02 05:02:54;;;;;;;96.47;29.20;;;;;;;;;;6269277;28;20064;-66
2022/11/02 05:05:55;;;;;;;102.63;31.65;;;;;;;;;;6269561;28;20127;-65
2022/11/02 05:08:55;;;;;;;99.10;30.60;;;;;;;;;;6269662;28;20521;-65
2022/11/02 05:11:56;;;;;;;97.50;30.92;;;;;;;;;;6274651;28;20171;-65
2022/11/02 05:14:57;;;;;;;102.90;31.38;;;;;;;;;;6268534;28;20052;-66
2022/11/02 05:17:57;;;;;;;102.90;31.17;;;;;;;;;;6265391;28;20103;-66
2022/11/02 05:21:00;;;;;;;100.00;31.77;;;;;;;;;;6266188;28;20126;-65
2022/11/02 05:24:00;;;;;;;99.35;29.80;;;;;;;;;;6268332;28;20160;-65
2022/11/02 05:27:01;;;;;;;107.28;30.92;;;;;;;;;;6267285;28;20135;-66
2022/11/02 05:30:05;;;;;;;103.07;30.20;;;;;;;;;;6269470;28;20441;-66
2022/11/02 05:33:05;;;;;;;106.53;30.80;;;;;;;;;;6270232;28;20533;-65
2022/11/02 05:36:06;;;;;;;98.63;28.98;;;;;;;;;;6276422;28;20094;-66
2022/11/02 05:39:06;;;;;;;107.10;31.88;;;;;;;;;;6279742;28;20048;-66
2022/11/02 05:42:07;;;;;;;102.90;29.75;;;;;;;;;;6282442;28;20088;-65
2022/11/02 05:45:08;;;;;;;109.22;29.77;;;;;;;;;;6281071;28;20051;-65
2022/11/02 05:48:09;;;;;;;137.57;31.88;;;;;;;;;;6283248;28;20483;-67
2022/11/02 05:51:09;;;;;;;141.13;30.88;;;;;;;;;;6281549;28;20148;-65
2022/11/02 05:54:10;;;;;;;99.28;29.48;;;;;;;;;;6294308;28;20593;-66
2022/11/02 05:57:10;;;;;;;117.30;31.35;;;;;;;;;;6280659;28;20447;-65
2022/11/02 06:00:11;;;;;;;121.65;32.60;;;;;;;;;;6266630;28;20045;-67
2022/11/02 06:03:12;;;;;;;122.80;31.92;;;;;;;;;;6267960;28;20134;-66
2022/11/02 06:06:12;;;;;;;122.10;34.20;;;;;;;;;;6269902;28;20404;-65
2022/11/02 06:09:13;;;;;;;137.73;30.90;;;;;;;;;;6267127;28;20048;-67
2022/11/02 06:12:13;;;;;;;154.25;31.23;;;;;;;;;;6269026;28;20044;-65
2022/11/02 06:15:14;;;;;;;129.90;32.45;;;;;;;;;;6270612;28;20541;-64
2022/11/02 06:18:14;;;;;;;141.07;37.60;;;;;;;;;;6268541;28;20049;-66
2022/11/02 06:21:15;;;;;;;174.98;58.67;;;;;;;;;;6264140;28;20191;-66
2022/11/02 06:24:15;;;;;;;131.60;35.00;;;;;;;;;;6267148;28;20863;-65
2022/11/02 06:27:16;;;;;;;141.73;45.15;;;;;;;;;;6268516;28;20430;-66
2022/11/02 06:30:17;;;;;;;144.07;40.17;;;;;;;;;;6291557;28;20125;-66
2022/11/02 06:33:19;;;;;;;146.80;37.13;;;;;;;;;;6277171;28;21684;-66
2022/11/02 06:36:19;;;;;;;132.00;33.70;;;;;;;;;;6270771;28;20053;-65
2022/11/02 06:39:20;;;;;;;190.20;33.33;;;;;;;;;;6266369;28;20102;-66
2022/11/02 06:42:21;;;;;;;158.55;33.08;;;;;;;;;;6269084;28;20444;-67
2022/11/02 06:45:23;;;;;;;109.10;31.25;;;;;;;;;;6270074;28;20067;-66
2022/11/02 06:48:26;;;;;;;117.30;28.88;;;;;;;;;;6269302;28;20049;-65
2022/11/02 06:51:26;;;;;;;112.38;28.77;;;;;;;;;;6266133;28;20135;-66
2022/11/02 06:54:27;;;;;;;141.52;30.98;;;;;;;;;;6266147;28;20047;-66
2022/11/02 06:57:27;;;;;;;142.15;30.15;;;;;;;;;;6265855;28;20048;-68
2022/11/02 07:00:29;;;;;;;157.95;54.40;;;;;;;;;;6269589;28;20052;-67
2022/11/02 07:03:30;;;;;;;290.33;102.37;;;;;;;;;;6272886;28;20175;-65
2022/11/02 07:06:30;;;;;;;166.10;63.55;;;;;;;;;;6269662;28;20044;-67
2022/11/02 07:09:31;;;;;;;135.38;41.95;;;;;;;;;;6267466;28;20127;-66
2022/11/02 07:12:31;;;;;;;127.72;32.20;;;;;;;;;;6268691;28;20036;-67
2022/11/02 07:15:32;;;;;;;112.45;30.20;;;;;;;;;;6263560;28;20044;-66
2022/11/02 07:18:32;;;;;;;114.10;28.88;;;;;;;;;;6267041;28;20045;-68
2022/11/02 07:21:33;;;;;;;107.90;28.85;;;;;;;;;;6264772;28;20049;-63
2022/11/02 07:24:33;;;;;;;109.28;29.65;;;;;;;;;;6282569;28;20087;-63
2022/11/02 07:27:38;;;;;;;104.75;29.30;;;;;;;;;;6271927;28;20486;-67
2022/11/02 07:30:39;;;;;;;109.00;32.20;;;;;;;;;;6291617;28;20803;-67
2022/11/02 07:33:39;;;;;;;100.70;30.23;;;;;;;;;;6287473;28;20059;-65
2022/11/02 07:36:40;;;;;;;96.45;31.15;;;;;;;;;;6276865;28;20044;-65
2022/11/02 07:39:41;;;;;;;107.03;30.60;;;;;;;;;;6289130;28;20399;-65
2022/11/02 07:42:47;;;;;;;102.70;30.20;;;;;;;;;;6291078;28;20445;-66
2022/11/02 07:45:48;;;;;;;96.05;28.88;;;;;;;;;;6293097;28;20127;-65
2022/11/02 07:48:48;;;;;;;98.72;29.45;;;;;;;;;;6288322;28;20595;-67
2022/11/02 07:51:49;;;;;;;98.28;29.90;;;;;;;;;;6286481;28;20191;-66
2022/11/02 07:54:49;;;;;;;100.65;29.90;;;;;;;;;;6291766;28;20044;-65
2022/11/02 07:57:55;;;;;;;95.95;30.77;;;;;;;;;;6277635;28;20059;-67
2022/11/02 08:00:58;;;;;;;105.95;31.60;;;;;;;;;;6264382;28;20152;-66
2022/11/02 08:03:58;;;;;;;101.97;29.75;;;;;;;;;;6271051;28;20147;-67
2022/11/02 08:06:59;;;;;;;99.20;30.35;;;;;;;;;;6269057;28;20058;-66
2022/11/02 08:09:59;;;;;;;102.93;31.17;;;;;;;;;;6268187;28;20120;-67
2022/11/02 08:13:00;;;;;;;97.38;31.42;;;;;;;;;;6269026;28;20053;-68
2022/11/02 08:16:01;;;;;;;101.07;31.85;;;;;;;;;;6266645;28;20048;-68
2022/11/02 08:19:21;;;;;;;103.78;32.25;;;;;;;;;;6266840;28;20057;-68
2022/11/02 08:22:22;;;;;;;97.20;31.77;;;;;;;;;;6265516;28;20064;-66
2022/11/02 08:25:23;;;;;;;102.75;32.30;;;;;;;;;;6269938;28;20051;-68
2022/11/02 08:28:27;;;;;;;97.80;34.22;;;;;;;;;;6268739;28;20049;-68
2022/11/02 08:31:27;;;;;;;88.40;31.08;;;;;;;;;;6263287;28;20059;-69
2022/11/02 08:34:28;;;;;;;103.13;33.75;;;;;;;;;;6267740;28;20431;-63
2022/11/02 08:37:29;;;;;;;99.55;33.95;;;;;;;;;;6269224;28;20061;-65
2022/11/02 08:40:29;;;;;;;92.55;31.88;;;;;;;;;;6267626;28;20840;-64
2022/11/02 08:43:30;;;;;;;93.22;30.85;;;;;;;;;;6286267;28;20070;-64
2022/11/02 08:46:30;;;;;;;79.68;27.42;;;;;;;;;;6288997;28;20040;-64
2022/11/02 08:49:31;;;;;;;83.95;29.98;;;;;;;;;;6291335;28;20053;-64
2022/11/02 08:52:36;;;;;;;82.45;28.05;;;;;;;;;;6289285;28;20043;-64
2022/11/02 08:55:37;;;;;;;62.90;23.02;;;;;;;;;;6292281;28;20040;-64
2022/11/02 08:58:37;;;;;;;63.72;23.35;;;;;;;;;;6290503;28;20591;-65
2022/11/02 09:01:38;;;;;;;55.40;21.00;;;;;;;;;;6289057;28;21021;-67
2022/11/02 09:04:38;;;;;;;60.25;22.00;;;;;;;;;;6291637;28;20056;-65
2022/11/02 09:07:39;;;;;;;48.65;17.85;;;;;;;;;;6290513;28;20076;-65
2022/11/02 09:10:40;;;;;;;45.65;17.55;;;;;;;;;;6290096;28;20056;-66
2022/11/02 09:13:41;;;;;;;49.13;18.35;;;;;;;;;;6289579;28;20041;-63
2022/11/02 09:16:41;;;;;;;47.20;20.02;;;;;;;;;;6290136;28;20049;-64
2022/11/02 09:19:42;;;;;;;47.92;17.95;;;;;;;;;;6291053;28;20041;-66
2022/11/02 09:22:43;;;;;;;52.25;18.90;;;;;;;;;;6289417;28;20086;-64
2022/11/02 09:25:44;;;;;;;49.33;19.55;;;;;;;;;;6291762;28;20537;-68
2022/11/02 09:28:45;;;;;;;60.45;22.15;;;;;;;;;;6269921;28;20040;-67
2022/11/02 09:31:47;;;;;;;59.10;22.52;;;;;;;;;;6267656;28;20048;-64
2022/11/02 09:34:49;;;;;;;58.78;22.20;;;;;;;;;;6263254;28;20056;-67
2022/11/02 09:37:50;;;;;;;58.65;21.83;;;;;;;;;;6264897;28;20431;-65
2022/11/02 09:41:02;;;;;;;53.78;21.17;;;;;;;;;;6268880;28;20055;-67
2022/11/02 09:44:10;;;;;;;49.33;19.40;;;;;;;;;;6265700;28;20045;-65
2022/11/02 09:47:11;;;;;;;42.03;16.63;;;;;;;;;;6272789;28;20083;-67
2022/11/02 09:50:20;;;;;;;40.75;15.10;;;;;;;;;;6271446;28;20522;-66
2022/11/02 09:53:28;;;;;;;31.58;13.70;;;;;;;;;;6270165;28;20083;-65
2022/11/02 09:56:30;;;;;;;36.63;15.07;;;;;;;;;;6271165;28;20400;-66
2022/11/02 09:59:31;;;;;;;34.20;13.43;;;;;;;;;;6270050;28;20057;-65
2022/11/02 10:03:16;;;;;;;36.00;14.73;;;;;;;;;;6269498;28;20056;-65
2022/11/02 10:06:20;;;;;;;31.98;13.82;;;;;;;;;;6277451;28;20392;-66
2022/11/02 10:09:32;;;;;;;30.20;13.02;;;;;;;;;;6270455;28;20046;-65
2022/11/02 10:12:42;;;;;;;28.05;12.02;;;;;;;;;;6270276;28;20419;-67
2022/11/02 10:15:54;;;;;;;27.27;11.07;;;;;;;;;;6271640;28;20407;-66
2022/11/02 10:18:54;;;;;;;30.30;12.05;;;;;;;;;;6267511;28;20053;-68
2022/11/02 10:21:59;;;;;;;24.63;10.18;;;;;;;;;;6273620;28;20783;-67
2022/11/02 10:25:03;;;;;;;25.25;10.82;;;;;;;;;;6271200;28;20575;-64
2022/11/02 10:28:15;;;;;;;24.30;10.30;;;;;;;;;;6265240;28;20062;-64
2022/11/02 10:31:26;;;;;;;23.58;10.50;;;;;;;;;;6268801;28;20049;-64
2022/11/02 10:34:28;;;;;;;30.25;10.27;;;;;;;;;;6269841;28;20503;-68
2022/11/02 10:37:38;;;;;;;25.98;11.82;;;;;;;;;;6268489;28;20044;-65
2022/11/02 10:40:51;;;;;;;22.35;10.05;;;;;;;;;;6265667;28;20048;-65
2022/11/02 10:43:58;;;;;;;24.20;9.73;;;;;;;;;;6268963;28;20048;-65
2022/11/02 10:47:01;;;;;;;28.13;11.70;;;;;;;;;;6270618;28;20064;-65
2022/11/02 10:50:34;;;;;;;26.50;10.60;;;;;;;;;;6267249;28;20041;-68
2022/11/02 10:53:36;;;;;;;;;;;;;;;;;;6270197;28;20037;-65
2022/11/02 10:56:37;;;;;;;28.70;10.88;;;;;;;;;;6277144;28;19973;-64
2022/11/02 10:59:38;;;;;;;30.60;11.23;;;;;;;;;;6293256;28;20044;-66
2022/11/02 11:02:39;;;;;;;27.48;11.02;;;;;;;;;;6290878;28;20510;-65
2022/11/02 11:05:48;;;;;;;31.00;11.52;;;;;;;;;;6280198;28;20140;-64
2022/11/02 11:08:50;;;;;;;28.35;10.57;;;;;;;;;;6268401;28;20044;-65
2022/11/02 11:12:02;;;;;;;28.17;10.38;;;;;;;;;;6268300;28;20045;-65
2022/11/02 11:15:05;;;;;;;29.30;10.90;;;;;;;;;;6270219;28;20117;-68
2022/11/02 11:18:11;;;;;;;27.35;10.90;;;;;;;;;;6290591;28;20048;-67
2022/11/02 11:21:12;;;;;;;27.15;10.45;;;;;;;;;;6293707;28;20058;-67
2022/11/02 11:24:20;;;;;;;29.33;9.98;;;;;;;;;;6291371;28;20173;-65
2022/11/02 11:27:21;;;;;;;32.25;11.57;;;;;;;;;;6292839;28;20048;-64
2022/11/02 11:30:22;;;;;;;27.97;11.03;;;;;;;;;;6292989;28;20048;-67
2022/11/02 11:33:22;;;;;;;27.02;10.05;;;;;;;;;;6291963;28;20380;-67
2022/11/02 11:36:29;;;;;;;25.58;10.13;;;;;;;;;;6291840;28;20048;-65
2022/11/02 11:39:30;;;;;;;27.38;11.63;;;;;;;;;;6292874;28;20163;-67
2022/11/02 11:42:35;;;;;;;32.47;11.38;;;;;;;;;;6292691;28;20048;-64
2022/11/02 11:45:36;;;;;;;30.70;12.48;;;;;;;;;;6287255;28;20045;-64
2022/11/02 11:48:46;;;;;;;33.70;14.05;;;;;;;;;;6266617;28;20052;-65
2022/11/02 11:51:52;;;;;;;31.17;12.43;;;;;;;;;;6269718;28;20502;-64
2022/11/02 11:54:55;;;;;;;38.45;13.65;;;;;;;;;;6267433;28;20498;-65
2022/11/02 11:58:26;;;;;;;28.40;11.75;;;;;;;;;;6267523;28;20049;-66
2022/11/02 12:01:37;;;;;;;32.38;12.05;;;;;;;;;;6256341;28;20033;-67
2022/11/02 12:04:38;;;;;;;25.55;11.45;;;;;;;;;;6269574;28;20151;-66
2022/11/02 12:07:57;;;;;;;25.10;10.43;;;;;;;;;;6268825;28;20917;-66
2022/11/02 12:11:07;;;;;;;22.90;9.35;;;;;;;;;;6268342;28;20225;-64
2022/11/02 12:14:17;;;;;;;26.25;10.80;;;;;;;;;;6276469;28;20408;-66
2022/11/02 12:17:30;;;;;;;23.75;10.00;;;;;;;;;;6276030;28;20049;-65
2022/11/02 12:20:34;;;;;;;25.60;10.20;;;;;;;;;;6274833;28;20438;-67
2022/11/02 12:23:53;;;;;;;23.35;10.25;;;;;;;;;;6288436;28;20076;-68
2022/11/02 12:27:33;;;;;;;23.20;10.70;;;;;;;;;;6290005;28;20047;-65
2022/11/02 12:30:45;;;;;;;26.75;10.23;;;;;;;;;;6292428;28;20051;-66
2022/11/02 12:34:12;;;;;;;22.98;10.15;;;;;;;;;;6287977;28;20109;-69
2022/11/02 12:37:44;;;;;;;27.65;10.93;;;;;;;;;;6287826;28;20075;-65
2022/11/02 12:40:53;;;;;;;29.05;11.05;;;;;;;;;;6291343;28;20446;-65
2022/11/02 12:44:20;;;;;;;24.45;11.20;;;;;;;;;;6267939;28;20053;-68
2022/11/02 12:47:41;;;;;;;30.33;11.85;;;;;;;;;;6264185;28;20040;-68
2022/11/02 12:50:59;;;;;;;26.67;10.82;;;;;;;;;;6262294;28;20480;-68
2022/11/02 12:54:19;;;;;;;24.20;11.02;;;;;;;;;;6265058;28;20045;-67
2022/11/02 12:57:23;;;;;;;36.95;12.73;;;;;;;;;;6260236;28;20503;-65
2022/11/02 13:00:24;;;;;;;26.02;10.82;;;;;;;;;;6264452;28;20053;-68
2022/11/02 13:03:51;;;;;;;26.02;10.70;;;;;;;;;;6265918;28;20482;-65
2022/11/02 13:06:59;;;;;;;24.15;11.07;;;;;;;;;;6278038;28;20045;-67
2022/11/02 13:10:04;;;;;;;28.73;11.00;;;;;;;;;;6266369;28;20053;-65
2022/11/02 13:13:13;;;;;;;24.55;11.63;;;;;;;;;;6267102;28;20494;-64
2022/11/02 13:16:16;;;;;;;28.58;10.75;;;;;;;;;;6263023;28;20049;-65
2022/11/02 13:19:21;;;;;;;22.83;10.35;;;;;;;;;;6265570;28;20048;-66
2022/11/02 13:22:29;;;;;;;24.02;10.32;;;;;;;;;;6271885;28;20725;-66
2022/11/02 13:25:40;;;;;;;24.73;12.48;;;;;;;;;;6277326;28;20044;-66
2022/11/02 13:28:46;;;;;;;29.30;12.47;;;;;;;;;;6271377;28;20068;-68
2022/11/02 13:31:54;;;;;;;28.30;12.75;;;;;;;;;;6270227;28;20044;-67
2022/11/02 13:34:56;;;;;;;27.65;12.48;;;;;;;;;;6269154;28;20068;-65
2022/11/02 13:38:03;;;;;;;28.40;12.55;;;;;;;;;;6266930;28;20052;-65
2022/11/02 13:41:13;;;;;;;27.10;11.60;;;;;;;;;;6272230;28;20048;-65
2022/11/02 13:44:29;;;;;;;29.13;11.98;;;;;;;;;;6271638;28;20205;-67
2022/11/02 13:47:57;;;;;;;28.17;12.40;;;;;;;;;;6270301;28;20136;-64
2022/11/02 13:51:02;;;;;;;21.35;10.70;;;;;;;;;;6267112;28;20049;-65
2022/11/02 13:54:14;;;;;;;40.38;18.70;;;;;;;;;;6269888;28;20391;-66
2022/11/02 13:57:39;;;;;;;51.27;24.47;;;;;;;;;;6269287;28;20480;-67
2022/11/02 14:00:43;;;;;;;106.13;29.48;;;;;;;;;;6271878;28;20132;-66
2022/11/02 14:03:55;;;;;;;31.27;13.55;;;;;;;;;;6287162;28;20071;-65
2022/11/02 14:07:00;;;;;;;192.05;66.30;;;;;;;;;;6292367;28;20048;-65
2022/11/02 14:10:12;;;;;;;175.23;63.65;;;;;;;;;;6290954;28;20041;-67
2022/11/02 14:13:16;;;;;;;98.35;34.85;;;;;;;;;;6269502;28;20063;-65
2022/11/02 14:16:43;;;;;;;77.43;30.48;;;;;;;;;;6267790;28;20045;-67
2022/11/02 14:19:47;;;;;;;529.47;155.50;;;;;;;;;;6268118;28;20045;-67
2022/11/02 14:23:13;;;;;;;280.73;77.45;;;;;;;;;;6267107;28;20390;-65
2022/11/02 14:26:31;;;;;;;352.92;95.97;;;;;;;;;;6268584;28;20045;-69
2022/11/02 14:29:37;;;;;;;100.25;30.88;;;;;;;;;;6270219;28;20046;-66
2022/11/02 14:32:49;;;;;;;34.80;14.23;;;;;;;;;;6268898;28;20049;-65
2022/11/02 14:35:59;;;;;;;28.73;13.10;;;;;;;;;;6267497;28;20525;-66
2022/11/02 14:39:21;;;;;;;34.50;14.27;;;;;;;;;;6269349;28;20083;-67
2022/11/02 14:42:34;;;;;;;33.85;14.65;;;;;;;;;;6266049;28;20051;-65
2022/11/02 14:45:54;;;;;;;44.85;17.15;;;;;;;;;;6264492;28;20145;-68
2022/11/02 14:48:58;;;;;;;34.22;17.20;;;;;;;;;;6269532;28;20045;-65
2022/11/02 14:52:23;;;;;;;31.83;13.88;;;;;;;;;;6261208;28;20487;-67
2022/11/02 14:55:27;;;;;;;32.47;14.95;;;;;;;;;;6257520;28;20586;-67
2022/11/02 14:58:34;;;;;;;36.92;15.10;;;;;;;;;;6255951;28;20083;-65
2022/11/02 15:01:49;;;;;;;33.50;17.95;;;;;;;;;;6260511;28;20041;-67
2022/11/02 15:04:51;;;;;;;73.43;41.97;;;;;;;;;;6254800;28;20172;-66
2022/11/02 15:07:57;;;;;;;71.47;35.40;;;;;;;;;;6251841;28;20053;-65
2022/11/02 15:10:57;;;;;;;64.70;39.20;;;;;;;;;;6249361;28;20139;-65
2022/11/02 15:13:58;;;;;;;62.45;34.38;;;;;;;;;;6253678;28;20083;-67
2022/11/02 15:16:59;;;;;;;35.33;17.00;;;;;;;;;;6253416;28;20053;-68
2022/11/02 15:20:13;;;;;;;31.48;15.45;;;;;;;;;;6252087;28;20056;-66
2022/11/02 15:23:20;;;;;;;31.40;12.65;;;;;;;;;;6256503;28;20049;-66
2022/11/02 15:26:47;;;;;;;25.30;10.90;;;;;;;;;;6255802;28;20056;-67
2022/11/02 15:29:48;;;;;;;121.18;35.13;;;;;;;;;;6250230;28;20487;-68
2022/11/02 15:33:02;;;;;;;132.02;35.65;;;;;;;;;;6256463;28;20048;-64
2022/11/02 15:36:05;;;;;;;68.60;27.45;;;;;;;;;;6261356;28;20060;-66
2022/11/02 15:39:09;;;;;;;48.55;24.17;;;;;;;;;;6256150;28;20501;-68
2022/11/02 15:42:25;;;;;;;43.17;21.63;;;;;;;;;;6254032;28;20057;-67
2022/11/02 15:45:39;;;;;;;43.95;19.92;;;;;;;;;;6260826;28;20738;-65
2022/11/02 15:49:16;;;;;;;40.10;17.70;;;;;;;;;;6256950;28;20061;-67
2022/11/02 15:52:45;;;;;;;32.97;15.82;;;;;;;;;;6257517;28;20057;-65
2022/11/02 15:55:57;;;;;;;33.40;16.23;;;;;;;;;;6260126;28;20049;-68
2022/11/02 15:59:24;;;;;;;32.28;12.93;;;;;;;;;;6260924;28;20057;-65
2022/11/02 16:02:31;;;;;;;26.33;12.02;;;;;;;;;;6258770;28;20083;-66
2022/11/02 16:05:42;;;;;;;27.90;12.60;;;;;;;;;;6254708;28;20045;-67
2022/11/02 16:08:43;;;;;;;31.45;13.05;;;;;;;;;;6249842;28;20036;-67
2022/11/02 16:11:58;;;;;;;31.53;13.77;;;;;;;;;;6255205;28;20056;-67
2022/11/02 16:15:09;;;;;;;35.03;13.75;;;;;;;;;;6255087;28;20052;-67
2022/11/02 16:18:27;;;;;;;34.67;14.52;;;;;;;;;;6255044;28;20049;-66
2022/11/02 16:21:29;;;;;;;36.42;14.10;;;;;;;;;;6250724;28;20465;-66
2022/11/02 16:24:31;;;;;;;35.92;14.93;;;;;;;;;;6255006;28;20118;-67
2022/11/02 16:27:36;;;;;;;40.67;15.05;;;;;;;;;;6252121;28;20068;-66
2022/11/02 16:30:37;;;;;;;41.80;16.65;;;;;;;;;;6250650;28;20538;-66
2022/11/02 16:33:54;;;;;;;38.75;16.58;;;;;;;;;;6252400;28;20140;-64
2022/11/02 16:36:56;;;;;;;47.22;16.05;;;;;;;;;;6250134;28;20053;-67
2022/11/02 16:39:57;;;;;;;;;;;;;;;;;;6251731;28;20148;-64
2022/11/02 16:42:57;;;;;;;45.05;17.73;;;;;;;;;;6251614;28;19932;-65
2022/11/02 16:46:02;;;;;;;43.83;18.33;;;;;;;;;;6251550;28;20076;-65
2022/11/02 16:49:13;;;;;;;48.45;17.38;;;;;;;;;;6252051;28;20134;-65
2022/11/02 16:52:29;;;;;;;42.60;17.17;;;;;;;;;;6251864;28;20083;-65
2022/11/02 16:55:30;;;;;;;48.65;17.08;;;;;;;;;;6258941;28;20511;-66
2022/11/02 16:58:31;;;;;;;37.20;16.33;;;;;;;;;;6257705;28;20048;-66
2022/11/02 17:01:37;;;;;;;42.75;16.35;;;;;;;;;;6261299;28;20049;-65
2022/11/02 17:04:44;;;;;;;39.38;15.65;;;;;;;;;;6256781;28;20296;-67
2022/11/02 17:08:07;;;;;;;45.17;15.88;;;;;;;;;;6256997;28;20751;-67
2022/11/02 17:11:14;;;;;;;45.75;16.48;;;;;;;;;;6259249;28;20716;-64
2022/11/02 17:14:18;;;;;;;41.22;15.20;;;;;;;;;;6258698;28;20060;-63
2022/11/02 17:17:24;;;;;;;32.58;14.68;;;;;;;;;;6255399;28;20049;-66
2022/11/02 17:20:25;;;;;;;33.22;14.75;;;;;;;;;;6262601;28;20507;-69
2022/11/02 17:23:42;;;;;;;34.58;14.40;;;;;;;;;;6261410;28;20061;-66
2022/11/02 17:26:42;;;;;;;34.72;13.40;;;;;;;;;;6257892;28;20079;-68
2022/11/02 17:29:44;;;;;;;36.08;14.75;;;;;;;;;;6255326;28;20049;-64
2022/11/02 17:32:45;;;;;;;38.53;14.85;;;;;;;;;;6257629;28;20049;-67
2022/11/02 17:35:48;;;;;;;35.15;14.13;;;;;;;;;;6258553;28;20511;-64
2022/11/02 17:38:48;;;;;;;35.85;13.43;;;;;;;;;;6254777;28;20052;-64
2022/11/02 17:45:27;;;;;;;32.85;13.18;;;;;;;;;;6261456;28;20098;-65
2022/11/02 17:48:28;;;;;;;34.63;14.00;;;;;;;;;;6257906;28;20045;-70
2022/11/02 17:51:29;;;;;;;40.15;14.63;;;;;;;;;;6261944;28;20068;-64
2022/11/02 17:54:29;;;;;;;35.33;14.45;;;;;;;;;;6262474;28;20079;-69
2022/11/02 17:57:30;;;;;;;34.78;14.60;;;;;;;;;;6259112;28;20060;-68
2022/11/02 18:00:33;;;;;;;31.48;14.57;;;;;;;;;;6259999;28;20053;-67
2022/11/02 18:03:34;;;;;;;39.35;15.27;;;;;;;;;;6261330;28;20858;-66
2022/11/02 18:06:35;;;;;;;38.58;14.27;;;;;;;;;;6261372;28;20053;-64
2022/11/02 18:09:35;;;;;;;34.33;13.63;;;;;;;;;;6255743;28;20053;-63
2022/11/02 18:12:36;;;;;;;40.38;13.70;;;;;;;;;;6258510;28;20499;-66
2022/11/02 18:15:36;;;;;;;36.45;14.50;;;;;;;;;;6261719;28;20052;-66
2022/11/02 18:18:37;;;;;;;37.60;13.98;;;;;;;;;;6257899;28;20567;-67